United States > Florida

Tampa, FL

03:45 PM EDT am 07. Juli 2015 (GMT -0400)
MacDill Air Force Base | | Change Station
CLOSE
Current Station
Flughafen
Location: Tampa Macdill AFB,
Höhe: 13 ft
Wetterstationen in der Umgebung

Höhe 13 ft 27.85 °N, 82.52 °W | Updated 47 minutes ago

Heiter
Heiter
90 °F
gefühlte 96 °F
N
2
Wind Wechselnd Wind aus Nord-Nordwest

Heute
Max. -- | schwach -- °F
--% Regenrisiko
Gestern
Max. -- | schwach -- °F
Precip. -- inch
6:39 AM 8:29 PM
Drittes Viertel, 62% visible
Druck 30.14 inch
Sichtweite 10.0 Meilen
Wolken Few 20000 ft
Hitzeindex 96 °F
Taupunkt 70 °F
Feuchtigkeit 53%
Regen 0.00 inch
Schneehöhe Nicht verfügbar..
UV 13 von 12
Pollen 3.50 von 12
Luftqualität Nicht verfügbar..
Flu Activity Nicht verfügbar..
METAR KMCF 071858Z AUTO 33002KT 10SM FEW200 32/21 A3013 RMK AO2 LTG DSNT N AND E-S SLP206 T03210214

More Conditions Fewer Conditions

Druck 30.14 inch
Sichtweite 10.0 Meilen
Wolken Few 20000 ft
Hitzeindex 96 °F
Taupunkt 70 °F
Feuchtigkeit 53%
Regen 0.00 inch
Schneehöhe Nicht verfügbar..
UV 13 von 12
Pollen 3.50 von 12
Luftqualität Nicht verfügbar..
Flu Activity Nicht verfügbar..
METAR KMCF 071858Z AUTO 33002KT 10SM FEW200 32/21 A3013 RMK AO2 LTG DSNT N AND E-S SLP206 T03210214

More Conditions Fewer Conditions

10-Day Weather Forecast

×

Almanac

Astronomie

Jul. 07, 2015 Aufgang Untergang
Genaue Zeit
Bürgerliche Dämmerung
Nautische Dämmerung
Astronomische Dämmerung
Mond
Länge des sichtbaren Lichts
Tageslänge
Tomorrow will be .
, % of the Moon is Illuminated

Heutige Rekorde

State Highs State Lows

Community

WunderPhotos

Upload Photos

1,835,884 Fotos hochgeladen!

WunderBlogs® & News

Nearby

Luftqualität

  Luftqualität LQ Index Schadstoff
Not available.

Schneehöhe

Station Depth Höhe

Erdbebenaktivität

Stadt Distance Mag. Time & Date
Minimum magnitude displayed is 2.5.

küstennahe Wassertemperaturen

Ort Temperatur

Stations

Wetterstationen in der Umgebung

Stationsstandort Temp. Windchill Taupunkt Feuchtigkeit Wind Precip. Höhe Aktualisiert Art